createdAt,value
2018-10-03T03:26:24.053Z,100233.45
2018-10-03T03:30:27.944Z,100231.22
2018-10-03T03:34:32.779Z,100246.20
2018-10-03T03:38:36.617Z,100242.69
2018-10-03T03:42:40.300Z,100253.27
2018-10-03T03:46:43.889Z,100255.45
2018-10-03T03:50:47.517Z,100256.78
2018-10-03T03:54:51.530Z,100250.63
2018-10-03T03:58:55.389Z,100250.61
2018-10-03T04:02:59.041Z,100252.82
2018-10-03T04:07:02.588Z,100257.20
2018-10-03T04:11:06.208Z,100255.89
2018-10-03T04:15:10.408Z,100248.41
2018-10-03T04:19:14.039Z,100247.55
2018-10-03T04:23:17.652Z,100248.87
2018-10-03T04:41:13.388Z,100245.78
2018-10-03T04:45:16.962Z,100233.91
2018-10-03T04:49:20.534Z,100211.44
2018-10-03T04:53:24.225Z,100218.92
2018-10-03T04:57:27.709Z,100211.45
2018-10-03T05:01:31.313Z,100211.88
2018-10-03T05:05:34.878Z,100212.75
2018-10-03T05:09:38.428Z,100223.77
2018-10-03T05:13:42.032Z,100226.41
2018-10-03T05:17:45.538Z,100224.64
2018-10-03T05:21:49.121Z,100212.75
2018-10-03T05:25:52.668Z,100190.30
2018-10-03T05:29:56.206Z,100200.86
2018-10-03T05:33:59.745Z,100219.81
2018-10-03T05:38:03.249Z,100201.73
2018-10-03T05:42:06.872Z,100211.00
2018-10-03T05:46:10.365Z,100215.42
2018-10-03T05:50:13.930Z,100218.03
2018-10-03T05:54:17.421Z,100212.75
2018-10-03T05:58:21.195Z,100218.95
2018-10-03T06:02:25.345Z,100228.66
2018-10-03T06:06:30.224Z,100226.45
2018-10-03T06:10:35.732Z,100229.09
2018-10-03T06:14:40.002Z,100234.39
2018-10-03T06:18:44.004Z,100229.52
2018-10-03T06:22:47.829Z,100238.33
2018-10-03T06:26:51.636Z,100240.53
2018-10-03T06:30:55.296Z,100246.70
2018-10-03T06:34:58.857Z,100259.05
2018-10-03T06:39:02.524Z,100257.70
2018-10-03T06:43:06.073Z,100263.00
2018-10-03T06:47:10.404Z,100270.06
2018-10-03T06:51:13.962Z,100265.66
2018-10-03T06:55:17.590Z,100259.91
2018-10-03T06:59:21.215Z,100260.79
2018-10-03T07:03:25.038Z,100266.09
2018-10-03T07:07:28.678Z,100260.77
2018-10-03T07:11:32.359Z,100264.73
2018-10-03T07:15:36.012Z,100259.45
2018-10-03T07:19:39.654Z,100274.00
2018-10-03T07:23:43.406Z,100253.70
2018-10-03T07:27:46.936Z,100258.95
2018-10-03T07:31:50.713Z,100262.06
2018-10-03T07:35:55.588Z,100251.89
2018-10-03T07:39:59.368Z,100261.56
2018-10-03T07:44:03.184Z,100274.38
2018-10-03T07:48:06.971Z,100273.89
2018-10-03T07:52:10.661Z,100276.53
2018-10-03T07:56:15.405Z,100272.98
2018-10-03T08:00:25.861Z,100252.66
2018-10-03T08:04:30.327Z,100286.17
2018-10-03T08:08:35.031Z,100257.48
2018-10-03T08:12:39.185Z,100261.48
2018-10-03T08:16:42.891Z,100260.98
2018-10-03T08:20:46.549Z,100258.77
2018-10-03T08:24:50.296Z,100252.95
2018-10-03T08:28:55.836Z,100253.81
2018-10-03T08:32:59.621Z,100267.03
2018-10-03T08:37:03.105Z,100262.58
2018-10-03T08:41:07.236Z,100269.12
2018-10-03T08:45:11.638Z,100262.91
2018-10-03T08:49:15.193Z,100261.57
2018-10-03T08:53:18.932Z,100268.64
2018-10-03T08:57:26.156Z,100272.56
2018-10-03T09:01:42.835Z,100257.58
2018-10-03T09:06:05.605Z,100277.86
2018-10-03T09:10:30.846Z,100288.01
2018-10-03T09:14:49.132Z,100290.23
2018-10-03T09:19:00.713Z,100291.98
2018-10-03T09:23:09.919Z,100291.52
2018-10-03T09:36:08.605Z,100300.30
2018-10-03T09:40:12.451Z,100296.34
2018-10-03T09:44:16.886Z,100296.31
2018-10-03T09:48:22.325Z,100289.65
2018-10-03T09:52:26.650Z,100292.68
2018-10-03T09:56:32.652Z,100293.91
2018-10-03T10:14:41.148Z,100291.28
2018-10-03T11:04:53.355Z,100284.30
2018-10-03T11:18:14.488Z,100292.91
2018-10-03T11:22:39.708Z,100283.17
2018-10-03T11:35:58.968Z,100282.70
2018-10-03T17:41:12.230Z,100552.66
2018-10-03T17:54:32.261Z,100565.97
2018-10-03T17:58:38.208Z,100567.72
2018-10-03T18:07:20.364Z,100580.56
2018-10-03T18:16:01.655Z,100581.88
2018-10-03T18:20:05.930Z,100587.19
2018-10-03T18:28:47.116Z,100613.28
2018-10-03T18:32:51.104Z,100618.58
2018-10-03T18:36:56.882Z,100618.61
2018-10-03T18:45:40.056Z,100626.56
2018-10-03T18:49:46.563Z,100630.53
2018-10-03T18:53:50.300Z,100635.41
2018-10-03T18:57:53.908Z,100638.95
2018-10-03T19:01:58.381Z,100646.45
2018-10-03T19:10:41.388Z,100650.41
2018-10-03T19:23:57.867Z,100668.09
2018-10-03T19:41:54.921Z,100694.10
2018-10-03T19:45:59.080Z,100710.00
2018-10-03T19:50:02.721Z,100719.27
2018-10-03T20:02:59.172Z,100719.72
2018-10-03T20:30:15.773Z,100761.47
2018-10-03T20:34:24.487Z,100764.09
2018-10-03T20:38:29.911Z,100769.37
2018-10-03T20:47:13.656Z,100772.89
2018-10-03T20:51:18.786Z,100780.84
2018-10-03T20:55:22.620Z,100787.91
2018-10-03T20:59:29.192Z,100796.73
2018-10-03T21:03:32.879Z,100803.79
2018-10-03T21:07:40.468Z,100820.53
2018-10-03T21:11:54.375Z,100810.86
2018-10-03T21:16:02.225Z,100815.69
2018-10-03T21:20:11.781Z,100813.05
2018-10-03T21:24:21.908Z,100817.90
2018-10-03T21:28:28.701Z,100812.17
2018-10-03T21:32:41.665Z,100819.20
2018-10-03T21:36:48.879Z,100820.99
2018-10-03T21:40:58.718Z,100824.97
2018-10-03T21:45:12.475Z,100834.23
2018-10-03T21:49:25.449Z,100831.13
2018-10-03T21:53:38.537Z,100827.18
2018-10-03T22:02:06.159Z,100848.34
2018-10-03T22:06:15.790Z,100846.14
2018-10-03T22:15:14.773Z,100848.33
2018-10-03T22:19:18.510Z,100850.98
2018-10-03T22:23:22.158Z,100857.61
2018-10-03T22:27:25.948Z,100854.50
2018-10-03T22:40:47.504Z,100877.87
2018-10-03T22:44:51.322Z,100879.66
2018-10-03T22:48:56.552Z,100882.31
2018-10-03T22:53:02.058Z,100883.19
2018-10-03T22:57:06.317Z,100881.86
2018-10-03T23:01:10.148Z,100888.95
2018-10-03T23:05:14.781Z,100885.39
2018-10-03T23:09:19.318Z,100888.96
2018-10-03T23:13:22.980Z,100894.23
2018-10-03T23:17:30.188Z,100907.46
2018-10-03T23:21:38.007Z,100903.49
2018-10-03T23:25:44.452Z,100909.64
2018-10-03T23:29:50.237Z,100913.61
2018-10-03T23:33:56.017Z,100909.64
2018-10-03T23:38:04.306Z,100919.38
2018-10-03T23:42:16.042Z,100922.45
2018-10-03T23:46:21.694Z,100922.05
2018-10-03T23:50:31.123Z,100925.56
2018-10-03T23:54:35.987Z,100927.31
2018-10-03T23:58:41.910Z,100928.17
